sensor_id;sensor_type;location;lat;lon;timestamp;pressure;altitude;pressure_sealevel;temperature;humidity
80648;BME280;70012;0.000;0.000;2023-08-06T00:00:58;99543.94;;;14.90;79.91
80648;BME280;70012;0.000;0.000;2023-08-06T00:03:26;99556.16;;;14.84;79.71
80648;BME280;70012;0.000;0.000;2023-08-06T00:05:53;99556.69;;;14.86;79.98
80648;BME280;70012;0.000;0.000;2023-08-06T00:08:20;99550.66;;;14.84;80.17
80648;BME280;70012;0.000;0.000;2023-08-06T00:10:47;99552.28;;;14.85;79.48
80648;BME280;70012;0.000;0.000;2023-08-06T00:13:15;99561.97;;;14.82;80.06
80648;BME280;70012;0.000;0.000;2023-08-06T00:15:41;99561.44;;;14.80;80.11
80648;BME280;70012;0.000;0.000;2023-08-06T00:18:08;99558.56;;;14.71;80.52
80648;BME280;70012;0.000;0.000;2023-08-06T00:20:38;99564.69;;;14.68;80.46
80648;BME280;70012;0.000;0.000;2023-08-06T00:23:05;99560.63;;;14.61;81.58
80648;BME280;70012;0.000;0.000;2023-08-06T00:25:32;99567.25;;;14.60;80.75
80648;BME280;70012;0.000;0.000;2023-08-06T00:27:59;99570.00;;;14.60;80.53
80648;BME280;70012;0.000;0.000;2023-08-06T00:30:25;99566.44;;;14.59;80.39
80648;BME280;70012;0.000;0.000;2023-08-06T00:32:52;99556.25;;;14.60;80.36
80648;BME280;70012;0.000;0.000;2023-08-06T00:35:19;99559.81;;;14.60;80.38
80648;BME280;70012;0.000;0.000;2023-08-06T00:37:46;99563.31;;;14.66;80.53
80648;BME280;70012;0.000;0.000;2023-08-06T00:40:14;99565.84;;;14.62;80.61
80648;BME280;70012;0.000;0.000;2023-08-06T00:42:40;99569.13;;;14.64;80.89
80648;BME280;70012;0.000;0.000;2023-08-06T00:45:07;99559.19;;;14.68;80.64
80648;BME280;70012;0.000;0.000;2023-08-06T00:47:34;99554.69;;;14.72;80.14
80648;BME280;70012;0.000;0.000;2023-08-06T00:50:01;99546.13;;;14.74;79.95
80648;BME280;70012;0.000;0.000;2023-08-06T00:52:28;99546.34;;;14.78;79.85
80648;BME280;70012;0.000;0.000;2023-08-06T00:54:55;99539.72;;;14.79;79.78
80648;BME280;70012;0.000;0.000;2023-08-06T00:57:24;99550.44;;;14.80;80.11
80648;BME280;70012;0.000;0.000;2023-08-06T00:59:53;99545.75;;;14.81;79.88
80648;BME280;70012;0.000;0.000;2023-08-06T01:02:20;99545.75;;;14.81;79.95
80648;BME280;70012;0.000;0.000;2023-08-06T01:04:47;99539.41;;;14.80;79.80
80648;BME280;70012;0.000;0.000;2023-08-06T01:13:45;99539.41;;;14.80;80.14
80648;BME280;70012;0.000;0.000;2023-08-06T01:16:17;99530.94;;;14.77;80.02
80648;BME280;70012;0.000;0.000;2023-08-06T01:18:48;99522.66;;;14.77;80.01
80648;BME280;70012;0.000;0.000;2023-08-06T01:21:16;99535.94;;;14.75;80.06
80648;BME280;70012;0.000;0.000;2023-08-06T01:23:44;99523.06;;;14.70;80.38
80648;BME280;70012;0.000;0.000;2023-08-06T01:26:24;99525.28;;;14.68;80.14
80648;BME280;70012;0.000;0.000;2023-08-06T01:31:31;99521.75;;;14.62;80.46
80648;BME280;70012;0.000;0.000;2023-08-06T01:33:59;99513.81;;;14.61;80.08
80648;BME280;70012;0.000;0.000;2023-08-06T01:36:28;99512.56;;;14.53;80.38
80648;BME280;70012;0.000;0.000;2023-08-06T01:38:55;99522.97;;;14.56;80.30
80648;BME280;70012;0.000;0.000;2023-08-06T01:41:21;99518.28;;;14.56;80.54
80648;BME280;70012;0.000;0.000;2023-08-06T01:43:48;99515.63;;;14.51;80.83
80648;BME280;70012;0.000;0.000;2023-08-06T01:46:15;99504.66;;;14.46;80.82
80648;BME280;70012;0.000;0.000;2023-08-06T01:48:42;99507.72;;;14.45;81.00
80648;BME280;70012;0.000;0.000;2023-08-06T01:51:09;99497.59;;;14.40;81.08
80648;BME280;70012;0.000;0.000;2023-08-06T01:53:37;99498.13;;;14.42;81.00
80648;BME280;70012;0.000;0.000;2023-08-06T01:56:04;99490.84;;;14.32;81.16
80648;BME280;70012;0.000;0.000;2023-08-06T01:58:30;99498.50;;;14.35;81.06
80648;BME280;70012;0.000;0.000;2023-08-06T02:00:57;99495.75;;;14.35;81.04
80648;BME280;70012;0.000;0.000;2023-08-06T02:03:24;99488.84;;;14.38;80.93
80648;BME280;70012;0.000;0.000;2023-08-06T02:05:51;99476.56;;;14.30;80.64
80648;BME280;70012;0.000;0.000;2023-08-06T02:08:21;99480.38;;;14.34;81.19
80648;BME280;70012;0.000;0.000;2023-08-06T02:10:48;99482.50;;;14.37;80.60
80648;BME280;70012;0.000;0.000;2023-08-06T02:13:15;99476.19;;;14.37;80.81
80648;BME280;70012;0.000;0.000;2023-08-06T02:15:43;99481.91;;;14.40;80.69
80648;BME280;70012;0.000;0.000;2023-08-06T02:18:10;99479.44;;;14.39;80.36
80648;BME280;70012;0.000;0.000;2023-08-06T02:20:37;99480.28;;;14.39;80.38
80648;BME280;70012;0.000;0.000;2023-08-06T02:23:06;99477.00;;;14.37;80.40
80648;BME280;70012;0.000;0.000;2023-08-06T02:25:33;99473.72;;;14.35;80.36
80648;BME280;70012;0.000;0.000;2023-08-06T02:28:00;99480.88;;;14.36;80.75
80648;BME280;70012;0.000;0.000;2023-08-06T02:30:27;99468.22;;;14.35;80.52
80648;BME280;70012;0.000;0.000;2023-08-06T02:32:53;99478.66;;;14.38;80.66
80648;BME280;70012;0.000;0.000;2023-08-06T02:35:21;99467.63;;;14.38;81.10
80648;BME280;70012;0.000;0.000;2023-08-06T02:37:47;99467.41;;;14.35;81.51
80648;BME280;70012;0.000;0.000;2023-08-06T02:40:14;99473.13;;;14.38;82.07
80648;BME280;70012;0.000;0.000;2023-08-06T02:42:41;99467.63;;;14.38;82.32
80648;BME280;70012;0.000;0.000;2023-08-06T02:45:08;99468.22;;;14.35;82.37
80648;BME280;70012;0.000;0.000;2023-08-06T02:47:35;99454.16;;;14.37;82.82
80648;BME280;70012;0.000;0.000;2023-08-06T02:50:02;99467.63;;;14.38;82.84
80648;BME280;70012;0.000;0.000;2023-08-06T02:52:29;99449.47;;;14.37;82.93
80648;BME280;70012;0.000;0.000;2023-08-06T02:54:55;99451.69;;;14.35;83.16
80648;BME280;70012;0.000;0.000;2023-08-06T02:57:22;99460.47;;;14.37;82.63
80648;BME280;70012;0.000;0.000;2023-08-06T02:59:50;99446.19;;;14.35;82.43
80648;BME280;70012;0.000;0.000;2023-08-06T03:02:17;99437.94;;;14.35;83.08
80648;BME280;70012;0.000;0.000;2023-08-06T03:04:44;99436.31;;;14.34;82.43
80648;BME280;70012;0.000;0.000;2023-08-06T03:07:11;99433.56;;;14.34;81.93
80648;BME280;70012;0.000;0.000;2023-08-06T03:09:38;99433.56;;;14.34;82.26
80648;BME280;70012;0.000;0.000;2023-08-06T03:12:05;99434.38;;;14.35;82.42
80648;BME280;70012;0.000;0.000;2023-08-06T03:14:32;99426.41;;;14.33;82.36
80648;BME280;70012;0.000;0.000;2023-08-06T03:16:59;99432.72;;;14.34;82.66
80648;BME280;70012;0.000;0.000;2023-08-06T03:19:26;99431.94;;;14.33;82.68
80648;BME280;70012;0.000;0.000;2023-08-06T03:21:53;99426.41;;;14.33;83.61
80648;BME280;70012;0.000;0.000;2023-08-06T03:24:21;99423.16;;;14.31;83.25
80648;BME280;70012;0.000;0.000;2023-08-06T03:26:48;99429.97;;;14.34;83.64
80648;BME280;70012;0.000;0.000;2023-08-06T03:29:15;99428.88;;;14.35;83.43
80648;BME280;70012;0.000;0.000;2023-08-06T03:31:42;99420.38;;;14.31;83.58
80648;BME280;70012;0.000;0.000;2023-08-06T03:34:09;99432.72;;;14.34;83.58
80648;BME280;70012;0.000;0.000;2023-08-06T03:36:36;99431.94;;;14.33;83.48
80648;BME280;70012;0.000;0.000;2023-08-06T03:39:04;99430.28;;;14.32;83.58
80648;BME280;70012;0.000;0.000;2023-08-06T03:41:31;99424.78;;;14.32;83.79
80648;BME280;70012;0.000;0.000;2023-08-06T03:43:58;99428.06;;;14.34;83.72
80648;BME280;70012;0.000;0.000;2023-08-06T03:46:24;99422.03;;;14.32;83.80
80648;BME280;70012;0.000;0.000;2023-08-06T03:48:52;99422.56;;;14.34;84.18
80648;BME280;70012;0.000;0.000;2023-08-06T03:51:22;99423.34;;;14.35;84.01
80648;BME280;70012;0.000;0.000;2023-08-06T03:53:48;99418.66;;;14.35;84.12
80648;BME280;70012;0.000;0.000;2023-08-06T03:56:15;99421.72;;;14.34;84.30
80648;BME280;70012;0.000;0.000;2023-08-06T03:58:42;99422.03;;;14.32;84.20
80648;BME280;70012;0.000;0.000;2023-08-06T04:01:11;99426.91;;;14.35;84.38
80648;BME280;70012;0.000;0.000;2023-08-06T04:03:38;99428.06;;;14.34;84.78
80648;BME280;70012;0.000;0.000;2023-08-06T04:06:06;99426.91;;;14.35;85.15
80648;BME280;70012;0.000;0.000;2023-08-06T04:08:33;99424.16;;;14.35;84.93
80648;BME280;70012;0.000;0.000;2023-08-06T04:11:00;99420.38;;;14.31;85.13
80648;BME280;70012;0.000;0.000;2023-08-06T04:13:26;99417.84;;;14.35;85.03
80648;BME280;70012;0.000;0.000;2023-08-06T04:15:53;99430.28;;;14.32;85.29
80648;BME280;70012;0.000;0.000;2023-08-06T04:18:21;99427.84;;;14.31;85.07
80648;BME280;70012;0.000;0.000;2023-08-06T04:20:47;99430.28;;;14.32;85.76
80648;BME280;70012;0.000;0.000;2023-08-06T04:23:16;99420.69;;;14.30;85.49
80648;BME280;70012;0.000;0.000;2023-08-06T04:25:43;99423.16;;;14.31;85.62
80648;BME280;70012;0.000;0.000;2023-08-06T04:28:11;99425.09;;;14.31;85.48
80648;BME280;70012;0.000;0.000;2023-08-06T04:30:40;99418.44;;;14.32;85.29
80648;BME280;70012;0.000;0.000;2023-08-06T04:33:07;99423.16;;;14.31;85.25
80648;BME280;70012;0.000;0.000;2023-08-06T04:35:33;99423.94;;;14.32;85.64
80648;BME280;70012;0.000;0.000;2023-08-06T04:38:00;99414.56;;;14.33;85.62
80648;BME280;70012;0.000;0.000;2023-08-06T04:40:27;99420.28;;;14.36;85.50
80648;BME280;70012;0.000;0.000;2023-08-06T04:42:54;99414.78;;;14.36;85.64
80648;BME280;70012;0.000;0.000;2023-08-06T04:45:20;99423.56;;;14.38;85.63
80648;BME280;70012;0.000;0.000;2023-08-06T04:47:47;99423.66;;;14.33;85.77
80648;BME280;70012;0.000;0.000;2023-08-06T04:50:14;99422.13;;;14.27;86.18
80648;BME280;70012;0.000;0.000;2023-08-06T04:52:41;99429.25;;;14.28;86.48
80648;BME280;70012;0.000;0.000;2023-08-06T04:55:07;99424.34;;;14.25;86.87
80648;BME280;70012;0.000;0.000;2023-08-06T04:57:34;99416.75;;;14.17;87.04
80648;BME280;70012;0.000;0.000;2023-08-06T05:00:01;99426.88;;;14.21;87.17
80648;BME280;70012;0.000;0.000;2023-08-06T05:02:29;99432.09;;;14.23;87.64
80648;BME280;70012;0.000;0.000;2023-08-06T05:04:56;99421.91;;;14.23;87.40
80648;BME280;70012;0.000;0.000;2023-08-06T05:07:22;99433.72;;;14.24;87.61
80648;BME280;70012;0.000;0.000;2023-08-06T05:09:50;99430.88;;;14.29;87.33
80648;BME280;70012;0.000;0.000;2023-08-06T05:12:16;99429.25;;;14.28;87.41
80648;BME280;70012;0.000;0.000;2023-08-06T05:14:43;99437.44;;;14.33;87.46
80648;BME280;70012;0.000;0.000;2023-08-06T05:17:10;99431.94;;;14.33;87.74
80648;BME280;70012;0.000;0.000;2023-08-06T05:19:37;99431.09;;;14.33;87.28
80648;BME280;70012;0.000;0.000;2023-08-06T05:22:04;99439.06;;;14.34;88.02
80648;BME280;70012;0.000;0.000;2023-08-06T05:24:30;99435.41;;;14.39;88.04
80648;BME280;70012;0.000;0.000;2023-08-06T05:26:57;99439.50;;;14.41;88.03
80648;BME280;70012;0.000;0.000;2023-08-06T05:29:24;99441.13;;;14.43;87.82
80648;BME280;70012;0.000;0.000;2023-08-06T05:31:50;99443.38;;;14.40;87.94
80648;BME280;70012;0.000;0.000;2023-08-06T05:34:18;99450.44;;;14.47;87.82
80648;BME280;70012;0.000;0.000;2023-08-06T05:36:45;99452.56;;;14.50;87.68
80648;BME280;70012;0.000;0.000;2023-08-06T05:39:11;99452.56;;;14.50;87.70
80648;BME280;70012;0.000;0.000;2023-08-06T05:41:38;99451.13;;;14.52;87.94
80648;BME280;70012;0.000;0.000;2023-08-06T05:44:05;99451.97;;;14.53;87.97
80648;BME280;70012;0.000;0.000;2023-08-06T05:46:32;99456.28;;;14.59;88.10
80648;BME280;70012;0.000;0.000;2023-08-06T05:48:59;99457.38;;;14.58;87.80
80648;BME280;70012;0.000;0.000;2023-08-06T05:51:26;99457.91;;;14.60;87.70
80648;BME280;70012;0.000;0.000;2023-08-06T05:53:53;99462.91;;;14.58;88.16
80648;BME280;70012;0.000;0.000;2023-08-06T05:56:20;99467.28;;;14.59;88.37
80648;BME280;70012;0.000;0.000;2023-08-06T05:58:47;99463.63;;;14.64;87.98
80648;BME280;70012;0.000;0.000;2023-08-06T06:01:14;99466.63;;;14.67;88.08
80648;BME280;70012;0.000;0.000;2023-08-06T06:03:40;99463.34;;;14.65;88.11
80648;BME280;70012;0.000;0.000;2023-08-06T06:06:07;99465.00;;;14.66;88.06
80648;BME280;70012;0.000;0.000;2023-08-06T06:08:34;99470.19;;;14.68;88.19
80648;BME280;70012;0.000;0.000;2023-08-06T06:11:01;99474.91;;;14.67;88.10
80648;BME280;70012;0.000;0.000;2023-08-06T06:13:27;99480.91;;;14.69;88.11
80648;BME280;70012;0.000;0.000;2023-08-06T06:15:55;99480.63;;;14.71;88.16
80648;BME280;70012;0.000;0.000;2023-08-06T06:18:22;99478.97;;;14.70;88.24
80648;BME280;70012;0.000;0.000;2023-08-06T06:20:49;99479.19;;;14.73;87.98
80648;BME280;70012;0.000;0.000;2023-08-06T06:23:16;99480.00;;;14.74;88.32
80648;BME280;70012;0.000;0.000;2023-08-06T06:25:43;99484.63;;;14.79;88.35
80648;BME280;70012;0.000;0.000;2023-08-06T06:28:13;99489.22;;;14.83;88.09
80648;BME280;70012;0.000;0.000;2023-08-06T06:30:41;99498.81;;;14.86;87.73
80648;BME280;70012;0.000;0.000;2023-08-06T06:33:08;99493.00;;;14.87;87.16
80648;BME280;70012;0.000;0.000;2023-08-06T06:35:35;99500.94;;;14.89;87.50
80648;BME280;70012;0.000;0.000;2023-08-06T06:38:02;99495.38;;;14.94;87.32
80648;BME280;70012;0.000;0.000;2023-08-06T06:40:29;99494.75;;;14.97;86.90
80648;BME280;70012;0.000;0.000;2023-08-06T06:42:56;99499.03;;;15.03;87.05
80648;BME280;70012;0.000;0.000;2023-08-06T06:45:23;99501.91;;;15.12;87.30
80648;BME280;70012;0.000;0.000;2023-08-06T06:47:50;99505.91;;;15.20;87.61
80648;BME280;70012;0.000;0.000;2023-08-06T06:50:17;99503.06;;;15.25;87.27
80648;BME280;70012;0.000;0.000;2023-08-06T06:52:43;99497.22;;;15.27;86.54
80648;BME280;70012;0.000;0.000;2023-08-06T06:55:10;99501.84;;;15.31;85.49
80648;BME280;70012;0.000;0.000;2023-08-06T06:57:37;99490.28;;;15.29;84.66
80648;BME280;70012;0.000;0.000;2023-08-06T07:00:05;99497.84;;;15.37;84.46
80648;BME280;70012;0.000;0.000;2023-08-06T07:02:32;99511.53;;;15.43;84.51
80648;BME280;70012;0.000;0.000;2023-08-06T07:05:00;99503.25;;;15.43;83.97
80648;BME280;70012;0.000;0.000;2023-08-06T07:07:27;99490.50;;;15.47;83.79
80648;BME280;70012;0.000;0.000;2023-08-06T07:09:54;99498.66;;;15.52;84.14
80648;BME280;70012;0.000;0.000;2023-08-06T07:12:21;99501.50;;;15.61;83.80
80648;BME280;70012;0.000;0.000;2023-08-06T07:14:48;99505.00;;;15.66;83.80
80648;BME280;70012;0.000;0.000;2023-08-06T07:17:15;99506.00;;;15.71;84.25
80648;BME280;70012;0.000;0.000;2023-08-06T07:19:41;99502.84;;;15.77;82.97
80648;BME280;70012;0.000;0.000;2023-08-06T07:22:08;99508.47;;;15.86;82.65
80648;BME280;70012;0.000;0.000;2023-08-06T07:24:35;99518.28;;;15.92;83.31
80648;BME280;70012;0.000;0.000;2023-08-06T07:27:02;99512.94;;;15.96;81.95
80648;BME280;70012;0.000;0.000;2023-08-06T07:29:29;99524.19;;;15.99;81.53
80648;BME280;70012;0.000;0.000;2023-08-06T07:31:56;99514.59;;;15.97;81.41
80648;BME280;70012;0.000;0.000;2023-08-06T07:34:22;99512.50;;;16.03;81.66
80648;BME280;70012;0.000;0.000;2023-08-06T07:36:49;99516.44;;;16.02;80.97
80648;BME280;70012;0.000;0.000;2023-08-06T07:39:16;99514.16;;;16.04;80.33
80648;BME280;70012;0.000;0.000;2023-08-06T07:41:43;99525.59;;;16.11;80.86
80648;BME280;70012;0.000;0.000;2023-08-06T07:44:12;99514.53;;;16.11;80.64
80648;BME280;70012;0.000;0.000;2023-08-06T07:46:39;99512.31;;;16.13;80.66
80648;BME280;70012;0.000;0.000;2023-08-06T07:49:06;99523.72;;;16.20;80.25
80648;BME280;70012;0.000;0.000;2023-08-06T07:51:32;99510.44;;;16.22;79.93
80648;BME280;70012;0.000;0.000;2023-08-06T07:54:02;99519.41;;;16.28;80.08
80648;BME280;70012;0.000;0.000;2023-08-06T07:56:29;99524.50;;;16.35;79.71
80648;BME280;70012;0.000;0.000;2023-08-06T07:58:56;99513.84;;;16.42;79.73
80648;BME280;70012;0.000;0.000;2023-08-06T08:01:23;99515.84;;;16.50;79.48
80648;BME280;70012;0.000;0.000;2023-08-06T08:03:50;99516.53;;;16.56;79.45
80648;BME280;70012;0.000;0.000;2023-08-06T08:06:16;99515.94;;;16.59;78.83
80648;BME280;70012;0.000;0.000;2023-08-06T08:08:43;99522.63;;;16.67;78.54
80648;BME280;70012;0.000;0.000;2023-08-06T08:11:10;99512.56;;;16.71;78.56
80648;BME280;70012;0.000;0.000;2023-08-06T08:13:37;99516.97;;;16.72;77.59
80648;BME280;70012;0.000;0.000;2023-08-06T08:16:04;99520.88;;;16.71;77.02
80648;BME280;70012;0.000;0.000;2023-08-06T08:18:30;99514.66;;;16.65;78.12
80648;BME280;70012;0.000;0.000;2023-08-06T08:20:58;99530.53;;;16.59;77.89
80648;BME280;70012;0.000;0.000;2023-08-06T08:23:25;99531.94;;;16.48;80.38
80648;BME280;70012;0.000;0.000;2023-08-06T08:25:52;99526.22;;;16.44;79.78
80648;BME280;70012;0.000;0.000;2023-08-06T08:28:19;99538.19;;;16.40;79.85
80648;BME280;70012;0.000;0.000;2023-08-06T08:30:46;99529.00;;;16.30;79.45
80648;BME280;70012;0.000;0.000;2023-08-06T08:33:13;99530.66;;;16.31;79.59
80648;BME280;70012;0.000;0.000;2023-08-06T08:35:39;99525.38;;;16.21;79.30
80648;BME280;70012;0.000;0.000;2023-08-06T08:38:07;99525.66;;;16.20;79.62
80648;BME280;70012;0.000;0.000;2023-08-06T08:40:38;99536.28;;;16.26;79.56
80648;BME280;70012;0.000;0.000;2023-08-06T08:43:06;99538.66;;;16.19;79.51
80648;BME280;70012;0.000;0.000;2023-08-06T08:45:34;99538.06;;;16.22;79.68
80648;BME280;70012;0.000;0.000;2023-08-06T08:48:06;99536.22;;;16.17;79.99
80648;BME280;70012;0.000;0.000;2023-08-06T08:50:33;99541.94;;;16.21;80.20
80648;BME280;70012;0.000;0.000;2023-08-06T08:53:00;99541.53;;;16.14;80.50
80648;BME280;70012;0.000;0.000;2023-08-06T08:55:27;99546.44;;;16.17;81.12
80648;BME280;70012;0.000;0.000;2023-08-06T08:57:54;99542.75;;;16.22;80.81
80648;BME280;70012;0.000;0.000;2023-08-06T09:00:21;99555.63;;;16.26;81.33
80648;BME280;70012;0.000;0.000;2023-08-06T09:02:48;99551.31;;;16.34;81.28
80648;BME280;70012;0.000;0.000;2023-08-06T09:05:16;99548.13;;;16.41;80.95
80648;BME280;70012;0.000;0.000;2023-08-06T09:07:47;99546.75;;;16.52;81.13
80648;BME280;70012;0.000;0.000;2023-08-06T09:10:16;99556.53;;;16.58;80.37
80648;BME280;70012;0.000;0.000;2023-08-06T09:12:46;99566.09;;;16.52;80.45
80648;BME280;70012;0.000;0.000;2023-08-06T09:15:13;99577.06;;;16.43;81.15
80648;BME280;70012;0.000;0.000;2023-08-06T09:17:40;99584.25;;;16.30;81.64
80648;BME280;70012;0.000;0.000;2023-08-06T09:20:11;99578.56;;;16.13;82.33
80648;BME280;70012;0.000;0.000;2023-08-06T09:22:38;99585.13;;;16.03;82.68
80648;BME280;70012;0.000;0.000;2023-08-06T09:25:06;99588.59;;;15.95;83.27
80648;BME280;70012;0.000;0.000;2023-08-06T09:27:37;99593.72;;;15.88;83.54
80648;BME280;70012;0.000;0.000;2023-08-06T09:30:05;99588.81;;;15.84;83.73
80648;BME280;70012;0.000;0.000;2023-08-06T09:32:46;99589.91;;;15.69;83.94
80648;BME280;70012;0.000;0.000;2023-08-06T09:35:21;99587.88;;;15.61;83.59
80648;BME280;70012;0.000;0.000;2023-08-06T09:37:48;99598.78;;;15.52;83.97
80648;BME280;70012;0.000;0.000;2023-08-06T09:40:31;99606.13;;;15.57;83.64
80648;BME280;70012;0.000;0.000;2023-08-06T09:42:59;99606.44;;;15.42;83.46
80648;BME280;70012;0.000;0.000;2023-08-06T09:45:35;99619.72;;;15.40;83.00
80648;BME280;70012;0.000;0.000;2023-08-06T09:48:04;99629.78;;;15.30;82.97
80648;BME280;70012;0.000;0.000;2023-08-06T09:50:32;99631.00;;;15.24;83.31
80648;BME280;70012;0.000;0.000;2023-08-06T09:53:00;99640.19;;;15.19;83.75
80648;BME280;70012;0.000;0.000;2023-08-06T09:55:27;99632.19;;;15.04;83.65
80648;BME280;70012;0.000;0.000;2023-08-06T09:57:54;99655.66;;;15.01;83.96
80648;BME280;70012;0.000;0.000;2023-08-06T10:00:23;99654.78;;;14.87;84.31
80648;BME280;70012;0.000;0.000;2023-08-06T10:02:50;99672.09;;;14.87;84.84
80648;BME280;70012;0.000;0.000;2023-08-06T10:05:22;99688.41;;;14.84;85.69
80648;BME280;70012;0.000;0.000;2023-08-06T10:07:49;99669.78;;;14.76;85.79
80648;BME280;70012;0.000;0.000;2023-08-06T10:10:19;99682.78;;;14.51;85.38
80648;BME280;70012;0.000;0.000;2023-08-06T10:12:49;99691.44;;;14.44;85.39
80648;BME280;70012;0.000;0.000;2023-08-06T10:15:22;99702.22;;;14.40;85.75
80648;BME280;70012;0.000;0.000;2023-08-06T10:17:53;99724.94;;;14.27;85.40
80648;BME280;70012;0.000;0.000;2023-08-06T10:20:21;99702.22;;;14.16;84.95
80648;BME280;70012;0.000;0.000;2023-08-06T10:23:04;99712.53;;;14.05;85.72
80648;BME280;70012;0.000;0.000;2023-08-06T10:25:35;99701.09;;;13.93;85.63
80648;BME280;70012;0.000;0.000;2023-08-06T10:28:08;99711.94;;;13.84;85.43
80648;BME280;70012;0.000;0.000;2023-08-06T10:30:46;99726.88;;;13.73;85.87
80648;BME280;70012;0.000;0.000;2023-08-06T10:33:14;99704.75;;;13.59;86.18
80648;BME280;70012;0.000;0.000;2023-08-06T10:35:44;99732.81;;;13.56;85.92
80648;BME280;70012;0.000;0.000;2023-08-06T10:38:20;99747.97;;;13.53;86.12
80648;BME280;70012;0.000;0.000;2023-08-06T10:43:35;99740.06;;;13.47;86.07
80648;BME280;70012;0.000;0.000;2023-08-06T10:46:09;99753.00;;;13.41;86.55
80648;BME280;70012;0.000;0.000;2023-08-06T10:51:03;99764.25;;;13.44;86.65
80648;BME280;70012;0.000;0.000;2023-08-06T10:53:30;99770.63;;;13.35;86.95
80648;BME280;70012;0.000;0.000;2023-08-06T10:56:01;99769.81;;;13.34;86.65
80648;BME280;70012;0.000;0.000;2023-08-06T10:58:34;99770.66;;;13.29;86.25
80648;BME280;70012;0.000;0.000;2023-08-06T11:01:01;99774.22;;;13.30;86.51
80648;BME280;70012;0.000;0.000;2023-08-06T11:03:28;99765.97;;;13.30;86.95
80648;BME280;70012;0.000;0.000;2023-08-06T11:05:55;99779.16;;;13.33;86.94
80648;BME280;70012;0.000;0.000;2023-08-06T11:08:28;99781.91;;;13.33;87.07
80648;BME280;70012;0.000;0.000;2023-08-06T11:10:55;99785.19;;;13.35;87.42
80648;BME280;70012;0.000;0.000;2023-08-06T11:13:29;99775.81;;;13.36;87.20
80648;BME280;70012;0.000;0.000;2023-08-06T11:15:57;99786.56;;;13.33;87.12
80648;BME280;70012;0.000;0.000;2023-08-06T11:18:24;99771.72;;;13.34;86.81
80648;BME280;70012;0.000;0.000;2023-08-06T11:20:52;99781.91;;;13.38;87.24
80648;BME280;70012;0.000;0.000;2023-08-06T11:23:18;99788.47;;;13.42;87.46
80648;BME280;70012;0.000;0.000;2023-08-06T11:25:45;99787.91;;;13.45;87.67
80648;BME280;70012;0.000;0.000;2023-08-06T11:28:12;99782.41;;;13.45;87.62
80648;BME280;70012;0.000;0.000;2023-08-06T11:30:40;99785.09;;;13.51;87.74
80648;BME280;70012;0.000;0.000;2023-08-06T11:33:07;99803.53;;;13.50;87.51
80648;BME280;70012;0.000;0.000;2023-08-06T11:35:35;99801.53;;;13.61;87.90
80648;BME280;70012;0.000;0.000;2023-08-06T11:38:02;99792.75;;;13.59;87.58
80648;BME280;70012;0.000;0.000;2023-08-06T11:40:29;99797.09;;;13.65;87.61
80648;BME280;70012;0.000;0.000;2023-08-06T11:42:57;99812.19;;;13.68;87.50
80648;BME280;70012;0.000;0.000;2023-08-06T11:45:24;99802.00;;;13.68;87.78
80648;BME280;70012;0.000;0.000;2023-08-06T11:47:52;99816.84;;;13.72;87.55
80648;BME280;70012;0.000;0.000;2023-08-06T11:50:26;99820.41;;;13.73;87.87
80648;BME280;70012;0.000;0.000;2023-08-06T11:52:59;99825.09;;;13.72;87.40
80648;BME280;70012;0.000;0.000;2023-08-06T11:55:28;99826.19;;;13.71;87.41
80648;BME280;70012;0.000;0.000;2023-08-06T11:57:55;99812.44;;;13.71;87.72
80648;BME280;70012;0.000;0.000;2023-08-06T12:00:24;99823.16;;;13.73;87.29
80648;BME280;70012;0.000;0.000;2023-08-06T12:02:52;99825.06;;;13.77;87.81
80648;BME280;70012;0.000;0.000;2023-08-06T12:05:20;99831.66;;;13.76;88.02
80648;BME280;70012;0.000;0.000;2023-08-06T12:07:48;99834.91;;;13.84;87.60
80648;BME280;70012;0.000;0.000;2023-08-06T12:10:35;99837.09;;;13.87;88.28
80648;BME280;70012;0.000;0.000;2023-08-06T12:13:02;99836.50;;;13.90;87.94
80648;BME280;70012;0.000;0.000;2023-08-06T12:15:29;99852.75;;;13.91;87.29
80648;BME280;70012;0.000;0.000;2023-08-06T12:17:58;99854.66;;;13.91;87.29
80648;BME280;70012;0.000;0.000;2023-08-06T12:20:25;99849.69;;;13.93;87.49
80648;BME280;70012;0.000;0.000;2023-08-06T12:22:53;99859.59;;;13.94;88.17
80648;BME280;70012;0.000;0.000;2023-08-06T12:25:20;99843.09;;;13.94;87.31
80648;BME280;70012;0.000;0.000;2023-08-06T12:27:49;99848.00;;;13.97;87.50
80648;BME280;70012;0.000;0.000;2023-08-06T12:30:16;99854.03;;;13.99;87.37
80648;BME280;70012;0.000;0.000;2023-08-06T12:32:43;99856.75;;;14.04;87.29
80648;BME280;70012;0.000;0.000;2023-08-06T12:35:09;99847.38;;;14.05;87.45
80648;BME280;70012;0.000;0.000;2023-08-06T12:37:36;99858.94;;;14.07;87.63
80648;BME280;70012;0.000;0.000;2023-08-06T12:40:05;99871.56;;;14.08;87.52
80648;BME280;70012;0.000;0.000;2023-08-06T12:42:53;99860.03;;;14.06;87.38
80648;BME280;70012;0.000;0.000;2023-08-06T12:45:20;99850.69;;;14.02;87.20
80648;BME280;70012;0.000;0.000;2023-08-06T12:47:50;99858.94;;;14.07;87.46
80648;BME280;70012;0.000;0.000;2023-08-06T12:50:17;99865.00;;;14.04;87.37
80648;BME280;70012;0.000;0.000;2023-08-06T12:52:44;99870.50;;;14.04;87.36
80648;BME280;70012;0.000;0.000;2023-08-06T12:55:11;99861.72;;;14.02;87.23
80648;BME280;70012;0.000;0.000;2023-08-06T12:57:38;99871.66;;;13.98;87.40
80648;BME280;70012;0.000;0.000;2023-08-06T13:00:23;99885.38;;;14.03;87.44
80648;BME280;70012;0.000;0.000;2023-08-06T13:02:50;99880.41;;;14.05;87.90
80648;BME280;70012;0.000;0.000;2023-08-06T13:05:19;99876.00;;;14.04;87.49
80648;BME280;70012;0.000;0.000;2023-08-06T13:07:46;99888.66;;;14.05;88.22
80648;BME280;70012;0.000;0.000;2023-08-06T13:10:13;99894.19;;;14.05;88.07
80648;BME280;70012;0.000;0.000;2023-08-06T13:12:40;99895.81;;;14.06;88.43
80648;BME280;70012;0.000;0.000;2023-08-06T13:15:07;99896.63;;;14.07;88.21
80648;BME280;70012;0.000;0.000;2023-08-06T13:17:34;99901.31;;;14.06;87.83
80648;BME280;70012;0.000;0.000;2023-08-06T13:20:01;99904.63;;;14.03;87.52
80648;BME280;70012;0.000;0.000;2023-08-06T13:22:27;99906.00;;;14.06;87.74
80648;BME280;70012;0.000;0.000;2023-08-06T13:24:54;99917.88;;;14.01;87.38
80648;BME280;70012;0.000;0.000;2023-08-06T13:27:21;99916.50;;;13.99;87.38